RUK64YX EGCC-LPFR
Flight info
| Callsign | RUK64YX |
|---|---|
| Flight time | 2h 45m |
| Altitude | 23000 |
| Route | ASMIM DCT NOKIN P17 BEPHE/N0439F360 DCT OSSEP DCT ELNIF DCT ZESPE DCT DAWLY DCT BHD DCT SALCO/N0440F370 DCT EBOMO DCT IBISU DCT BALDA DCT ABUPI DCT ALAGU |
| Aircraft | B738/M-SDE2E3FGHIRWXY/LB1 |
Departure
| Time | 2026-05-08 04:02 |
|---|---|
| Airport | Manchester Airport (EGCC) |
Arrival
| Time | 2026-05-08 06:48 |
|---|---|
| Airport | Faro - Gago Coutinho International Airport (LPFR) |
| Time | Latitude | Longitude | Altitude | Speed | Heading |
|---|---|---|---|---|---|
| 2026-05-08 03:24 | 53.35951 | -2.27138 | 260 ft | 0 kts | 89° |
| 2026-05-08 03:52 | 53.35951 | -2.27154 | 259 ft | 2 kts | 89° |
| 2026-05-08 03:52 | 53.35952 | -2.27180 | 259 ft | 2 kts | 104° |
| 2026-05-08 03:52 | 53.35958 | -2.27204 | 259 ft | 2 kts | 124° |
| 2026-05-08 03:52 | 53.35968 | -2.27223 | 259 ft | 2 kts | 144° |
| 2026-05-08 03:53 | 53.35982 | -2.27235 | 259 ft | 2 kts | 165° |
| 2026-05-08 03:53 | 53.35992 | -2.27238 | 259 ft | 0 kts | 177° |
| 2026-05-08 03:53 | 53.35998 | -2.27238 | 259 ft | 0 kts | 179° |
| 2026-05-08 03:56 | 53.35987 | -2.27238 | 259 ft | 3 kts | 179° |
| 2026-05-08 03:57 | 53.35947 | -2.27235 | 259 ft | 8 kts | 174° |
| 2026-05-08 03:57 | 53.35874 | -2.27218 | 259 ft | 9 kts | 172° |
| 2026-05-08 03:57 | 53.35817 | -2.27264 | 259 ft | 10 kts | 229° |
| 2026-05-08 03:57 | 53.35762 | -2.27376 | 259 ft | 14 kts | 231° |
| 2026-05-08 03:58 | 53.35691 | -2.27521 | 259 ft | 17 kts | 230° |
| 2026-05-08 03:58 | 53.35601 | -2.27684 | 259 ft | 19 kts | 224° |
| 2026-05-08 03:58 | 53.35504 | -2.27841 | 259 ft | 18 kts | 224° |
| 2026-05-08 03:58 | 53.35400 | -2.28008 | 259 ft | 21 kts | 223° |
| 2026-05-08 03:59 | 53.35287 | -2.28195 | 259 ft | 22 kts | 226° |
| 2026-05-08 03:59 | 53.35196 | -2.28373 | 259 ft | 18 kts | 231° |
| 2026-05-08 03:59 | 53.35120 | -2.28530 | 259 ft | 14 kts | 233° |
| 2026-05-08 03:59 | 53.35059 | -2.28658 | 259 ft | 13 kts | 230° |
| 2026-05-08 04:00 | 53.34990 | -2.28749 | 259 ft | 9 kts | 181° |
| 2026-05-08 04:00 | 53.34941 | -2.28703 | 259 ft | 6 kts | 138° |
| 2026-05-08 04:00 | 53.34909 | -2.28661 | 259 ft | 8 kts | 142° |
| 2026-05-08 04:00 | 53.34865 | -2.28597 | 259 ft | 6 kts | 122° |
| 2026-05-08 04:01 | 53.34868 | -2.28554 | 259 ft | 2 kts | 54° |
| 2026-05-08 04:01 | 53.34871 | -2.28548 | 259 ft | 0 kts | 51° |
| 2026-05-08 04:01 | 53.35015 | -2.28237 | 259 ft | 70 kts | 51° |
| 2026-05-08 04:02 | 53.35466 | -2.27308 | 259 ft | 132 kts | 51° |
| 2026-05-08 04:02 | 53.36159 | -2.25867 | 421 ft | 166 kts | 52° |
| 2026-05-08 04:02 | 53.36910 | -2.24287 | 909 ft | 175 kts | 51° |
| 2026-05-08 04:02 | 53.37714 | -2.22702 | 1573 ft | 177 kts | 51° |
| 2026-05-08 04:03 | 53.38591 | -2.21101 | 1927 ft | 195 kts | 37° |
| 2026-05-08 04:03 | 53.41209 | -2.21415 | 2957 ft | 201 kts | 319° |
| 2026-05-08 04:03 | 53.42068 | -2.23410 | 3188 ft | 218 kts | 290° |
| 2026-05-08 04:04 | 53.42685 | -2.25904 | 3539 ft | 237 kts | 291° |
| 2026-05-08 04:04 | 53.43385 | -2.28580 | 3925 ft | 255 kts | 291° |
| 2026-05-08 04:04 | 53.44130 | -2.31381 | 4563 ft | 261 kts | 292° |
| 2026-05-08 04:04 | 53.44891 | -2.34184 | 5002 ft | 268 kts | 294° |
| 2026-05-08 04:05 | 53.45779 | -2.36989 | 4984 ft | 264 kts | 296° |
| 2026-05-08 04:05 | 53.46661 | -2.39718 | 4995 ft | 261 kts | 296° |
| 2026-05-08 04:05 | 53.47380 | -2.42562 | 4984 ft | 260 kts | 278° |
| 2026-05-08 04:05 | 53.47279 | -2.45556 | 5009 ft | 255 kts | 254° |
| 2026-05-08 04:06 | 53.46801 | -2.48454 | 4998 ft | 257 kts | 254° |
| 2026-05-08 04:06 | 53.46384 | -2.51445 | 4987 ft | 256 kts | 257° |
| 2026-05-08 04:06 | 53.46038 | -2.54390 | 4994 ft | 256 kts | 258° |
| 2026-05-08 04:06 | 53.45702 | -2.57354 | 4991 ft | 256 kts | 258° |
| 2026-05-08 04:07 | 53.45354 | -2.60380 | 4993 ft | 256 kts | 257° |
| 2026-05-08 04:07 | 53.44980 | -2.63388 | 4990 ft | 255 kts | 252° |
| 2026-05-08 04:07 | 53.44083 | -2.65928 | 4995 ft | 254 kts | 219° |
| 2026-05-08 04:07 | 53.42439 | -2.67146 | 5691 ft | 255 kts | 194° |
| 2026-05-08 04:08 | 53.40734 | -2.67932 | 6368 ft | 259 kts | 198° |
| 2026-05-08 04:08 | 53.38990 | -2.68913 | 7071 ft | 261 kts | 199° |
| 2026-05-08 04:08 | 53.37264 | -2.69939 | 7770 ft | 264 kts | 200° |
| 2026-05-08 04:08 | 53.35515 | -2.71009 | 8504 ft | 266 kts | 200° |
| 2026-05-08 04:09 | 53.33734 | -2.72111 | 9224 ft | 268 kts | 201° |
| 2026-05-08 04:09 | 53.31964 | -2.73213 | 9951 ft | 270 kts | 201° |
| 2026-05-08 04:09 | 53.30162 | -2.74334 | 10429 ft | 282 kts | 201° |
| 2026-05-08 04:09 | 53.28208 | -2.75554 | 10528 ft | 307 kts | 201° |
| 2026-05-08 04:10 | 53.26112 | -2.76860 | 10972 ft | 319 kts | 201° |
| 2026-05-08 04:10 | 53.24010 | -2.78165 | 11600 ft | 324 kts | 201° |
| 2026-05-08 04:10 | 53.21854 | -2.79502 | 12320 ft | 326 kts | 201° |
| 2026-05-08 04:10 | 53.19674 | -2.80856 | 13000 ft | 329 kts | 201° |
| 2026-05-08 04:11 | 53.17512 | -2.82198 | 13687 ft | 332 kts | 201° |
| 2026-05-08 04:11 | 53.15313 | -2.83560 | 14376 ft | 335 kts | 201° |
| 2026-05-08 04:11 | 53.13067 | -2.84950 | 15061 ft | 339 kts | 201° |
| 2026-05-08 04:11 | 53.10805 | -2.86348 | 15754 ft | 342 kts | 200° |
| 2026-05-08 04:12 | 53.08477 | -2.87459 | 16383 ft | 347 kts | 191° |
| 2026-05-08 04:12 | 53.06030 | -2.87760 | 17021 ft | 352 kts | 178° |
| 2026-05-08 04:12 | 53.03550 | -2.87259 | 17673 ft | 356 kts | 173° |
| 2026-05-08 04:12 | 53.01046 | -2.86555 | 18265 ft | 360 kts | 172° |
| 2026-05-08 04:13 | 52.98511 | -2.85838 | 18852 ft | 364 kts | 172° |
| 2026-05-08 04:13 | 52.95983 | -2.85134 | 19464 ft | 366 kts | 172° |
| 2026-05-08 04:13 | 52.93412 | -2.84429 | 20002 ft | 370 kts | 172° |
| 2026-05-08 04:13 | 52.90823 | -2.83724 | 20576 ft | 373 kts | 172° |
| 2026-05-08 04:14 | 52.88186 | -2.83009 | 21123 ft | 376 kts | 172° |
| 2026-05-08 04:14 | 52.85554 | -2.82298 | 21656 ft | 380 kts | 172° |
| 2026-05-08 04:14 | 52.82920 | -2.81588 | 22176 ft | 383 kts | 172° |
| 2026-05-08 04:14 | 52.80235 | -2.80864 | 22683 ft | 386 kts | 172° |
| 2026-05-08 04:15 | 52.77533 | -2.80135 | 23189 ft | 388 kts | 173° |
| 2026-05-08 04:15 | 52.74830 | -2.79409 | 23660 ft | 392 kts | 173° |
| 2026-05-08 04:15 | 52.72085 | -2.78674 | 24127 ft | 395 kts | 172° |
| 2026-05-08 04:15 | 52.69324 | -2.77934 | 24574 ft | 398 kts | 173° |
| 2026-05-08 04:16 | 52.66576 | -2.77199 | 25005 ft | 401 kts | 173° |
| 2026-05-08 04:16 | 52.63780 | -2.76522 | 25429 ft | 404 kts | 175° |
| 2026-05-08 04:16 | 52.60940 | -2.76178 | 25837 ft | 405 kts | 181° |
| 2026-05-08 04:16 | 52.58051 | -2.76246 | 26263 ft | 407 kts | 184° |
| 2026-05-08 04:17 | 52.55167 | -2.76428 | 26677 ft | 410 kts | 184° |
| 2026-05-08 04:17 | 52.52294 | -2.76639 | 27038 ft | 413 kts | 184° |
| 2026-05-08 04:17 | 52.49388 | -2.76867 | 27416 ft | 416 kts | 184° |
| 2026-05-08 04:17 | 52.46430 | -2.77104 | 27818 ft | 418 kts | 184° |
| 2026-05-08 04:18 | 52.43473 | -2.77347 | 28170 ft | 421 kts | 185° |
| 2026-05-08 04:18 | 52.40518 | -2.77594 | 28523 ft | 424 kts | 185° |
| 2026-05-08 04:18 | 52.37528 | -2.77847 | 28871 ft | 426 kts | 185° |
| 2026-05-08 04:18 | 52.34515 | -2.78103 | 29216 ft | 429 kts | 185° |
| 2026-05-08 04:19 | 52.31520 | -2.78356 | 29604 ft | 430 kts | 185° |
| 2026-05-08 04:19 | 52.28490 | -2.78613 | 30015 ft | 430 kts | 185° |
| 2026-05-08 04:19 | 52.25482 | -2.78867 | 30377 ft | 430 kts | 185° |
| 2026-05-08 04:19 | 52.22465 | -2.79123 | 30772 ft | 430 kts | 185° |
| 2026-05-08 04:20 | 52.19437 | -2.79384 | 31150 ft | 430 kts | 185° |
| 2026-05-08 04:20 | 52.16427 | -2.79641 | 31528 ft | 430 kts | 185° |
| 2026-05-08 04:20 | 52.13394 | -2.79899 | 31895 ft | 431 kts | 185° |
| 2026-05-08 04:20 | 52.10313 | -2.80164 | 32255 ft | 431 kts | 185° |
| 2026-05-08 04:21 | 52.07294 | -2.80417 | 32636 ft | 431 kts | 185° |
| 2026-05-08 04:21 | 52.04237 | -2.80676 | 32986 ft | 431 kts | 185° |
| 2026-05-08 04:21 | 52.01212 | -2.80933 | 33335 ft | 431 kts | 185° |
| 2026-05-08 04:21 | 51.98155 | -2.81192 | 33618 ft | 433 kts | 185° |
| 2026-05-08 04:22 | 51.95090 | -2.81451 | 33930 ft | 433 kts | 186° |
| 2026-05-08 04:22 | 51.92025 | -2.81711 | 34273 ft | 433 kts | 186° |
| 2026-05-08 04:22 | 51.89019 | -2.81967 | 34625 ft | 432 kts | 186° |
| 2026-05-08 04:22 | 51.85969 | -2.82223 | 34987 ft | 431 kts | 186° |
| 2026-05-08 04:23 | 51.82928 | -2.82663 | 35337 ft | 428 kts | 190° |
| 2026-05-08 04:23 | 51.79939 | -2.83318 | 35682 ft | 427 kts | 191° |
| 2026-05-08 04:23 | 51.76980 | -2.83989 | 36002 ft | 426 kts | 191° |
| 2026-05-08 04:23 | 51.74003 | -2.84657 | 36066 ft | 429 kts | 191° |
| 2026-05-08 04:24 | 51.68082 | -2.85961 | 36054 ft | 422 kts | 190° |
| 2026-05-08 04:24 | 51.62189 | -2.87238 | 36053 ft | 421 kts | 190° |
| 2026-05-08 04:25 | 51.56345 | -2.88751 | 36049 ft | 422 kts | 196° |
| 2026-05-08 04:25 | 51.50615 | -2.91672 | 36044 ft | 421 kts | 202° |
| 2026-05-08 04:26 | 51.45039 | -2.94943 | 36040 ft | 420 kts | 203° |
| 2026-05-08 04:26 | 51.39452 | -2.98261 | 36036 ft | 420 kts | 203° |
| 2026-05-08 04:27 | 51.33880 | -3.01575 | 36032 ft | 420 kts | 203° |
| 2026-05-08 04:27 | 51.28322 | -3.04882 | 36029 ft | 420 kts | 203° |
| 2026-05-08 04:28 | 51.22716 | -3.08212 | 36025 ft | 421 kts | 203° |
| 2026-05-08 04:28 | 51.17143 | -3.11515 | 36021 ft | 421 kts | 203° |
| 2026-05-08 04:29 | 51.11486 | -3.14859 | 36020 ft | 422 kts | 203° |
| 2026-05-08 04:29 | 51.05891 | -3.18158 | 36020 ft | 421 kts | 204° |
| 2026-05-08 04:30 | 51.00286 | -3.21457 | 36020 ft | 421 kts | 204° |
| 2026-05-08 04:30 | 50.94661 | -3.24761 | 36020 ft | 422 kts | 204° |
| 2026-05-08 04:31 | 50.89012 | -3.28064 | 36020 ft | 423 kts | 204° |
| 2026-05-08 04:31 | 50.83397 | -3.31342 | 36020 ft | 424 kts | 204° |
| 2026-05-08 04:32 | 50.77750 | -3.34631 | 36020 ft | 424 kts | 204° |
| 2026-05-08 04:32 | 50.72090 | -3.37919 | 36020 ft | 425 kts | 204° |
| 2026-05-08 04:33 | 50.66415 | -3.41202 | 36019 ft | 425 kts | 204° |
| 2026-05-08 04:33 | 50.60724 | -3.44439 | 36020 ft | 426 kts | 202° |
| 2026-05-08 04:34 | 50.54846 | -3.46627 | 36021 ft | 432 kts | 192° |
| 2026-05-08 04:34 | 50.48725 | -3.47784 | 36020 ft | 434 kts | 191° |
| 2026-05-08 04:35 | 50.42553 | -3.48870 | 36020 ft | 434 kts | 190° |
| 2026-05-08 04:35 | 50.36424 | -3.49678 | 36017 ft | 436 kts | 186° |
| 2026-05-08 04:36 | 50.30182 | -3.49977 | 36005 ft | 437 kts | 186° |
| 2026-05-08 04:36 | 50.23974 | -3.50276 | 36281 ft | 437 kts | 186° |
| 2026-05-08 04:37 | 50.20847 | -3.50436 | 36561 ft | 437 kts | 186° |
| 2026-05-08 04:37 | 50.17769 | -3.50599 | 36840 ft | 437 kts | 186° |
| 2026-05-08 04:37 | 50.14639 | -3.50764 | 36982 ft | 439 kts | 186° |
| 2026-05-08 04:37 | 50.11529 | -3.50929 | 36981 ft | 438 kts | 186° |
| 2026-05-08 04:38 | 50.05331 | -3.51254 | 36993 ft | 432 kts | 186° |
| 2026-05-08 04:38 | 49.99209 | -3.51584 | 36993 ft | 432 kts | 186° |
| 2026-05-08 04:39 | 49.93037 | -3.51916 | 36993 ft | 434 kts | 186° |
| 2026-05-08 04:39 | 49.86871 | -3.52249 | 36993 ft | 434 kts | 186° |
| 2026-05-08 04:40 | 49.80693 | -3.52581 | 36993 ft | 434 kts | 186° |
| 2026-05-08 04:40 | 49.74531 | -3.53189 | 36992 ft | 431 kts | 192° |
| 2026-05-08 04:41 | 49.68579 | -3.55233 | 36994 ft | 427 kts | 199° |
| 2026-05-08 04:41 | 49.62698 | -3.57665 | 36993 ft | 427 kts | 200° |
| 2026-05-08 04:42 | 49.56859 | -3.60116 | 36993 ft | 426 kts | 200° |
| 2026-05-08 04:42 | 49.51013 | -3.62574 | 36992 ft | 426 kts | 200° |
| 2026-05-08 04:43 | 49.45157 | -3.65034 | 36993 ft | 426 kts | 199° |
| 2026-05-08 04:43 | 49.39305 | -3.67486 | 36993 ft | 427 kts | 199° |
| 2026-05-08 04:44 | 49.33431 | -3.69944 | 36993 ft | 427 kts | 199° |
| 2026-05-08 04:44 | 49.27607 | -3.72371 | 36993 ft | 426 kts | 199° |
| 2026-05-08 04:45 | 49.21732 | -3.74818 | 36993 ft | 426 kts | 199° |
| 2026-05-08 04:45 | 49.15895 | -3.77245 | 36993 ft | 426 kts | 199° |
| 2026-05-08 04:46 | 49.10002 | -3.79685 | 36993 ft | 426 kts | 199° |
| 2026-05-08 04:46 | 49.04153 | -3.82104 | 36993 ft | 426 kts | 199° |
| 2026-05-08 04:47 | 48.98333 | -3.84503 | 36992 ft | 426 kts | 199° |
| 2026-05-08 04:47 | 48.92463 | -3.86919 | 36993 ft | 425 kts | 200° |
| 2026-05-08 04:48 | 48.86671 | -3.89295 | 36993 ft | 425 kts | 200° |
| 2026-05-08 04:48 | 48.80853 | -3.91677 | 36993 ft | 425 kts | 200° |
| 2026-05-08 04:49 | 48.75011 | -3.94061 | 36993 ft | 425 kts | 200° |
| 2026-05-08 04:49 | 48.69195 | -3.96433 | 36993 ft | 425 kts | 200° |
| 2026-05-08 04:50 | 48.63359 | -3.98808 | 36993 ft | 425 kts | 200° |
| 2026-05-08 04:50 | 48.57522 | -4.01169 | 36993 ft | 424 kts | 200° |
| 2026-05-08 04:51 | 48.51683 | -4.03532 | 36993 ft | 424 kts | 200° |
| 2026-05-08 04:51 | 48.45879 | -4.05878 | 36993 ft | 424 kts | 200° |
| 2026-05-08 04:52 | 48.40023 | -4.08238 | 36993 ft | 424 kts | 200° |
| 2026-05-08 04:52 | 48.34219 | -4.10570 | 36993 ft | 424 kts | 200° |
| 2026-05-08 04:53 | 48.28423 | -4.12892 | 36993 ft | 424 kts | 200° |
| 2026-05-08 04:53 | 48.22587 | -4.15224 | 36993 ft | 424 kts | 200° |
| 2026-05-08 04:54 | 48.16774 | -4.17543 | 36993 ft | 424 kts | 200° |
| 2026-05-08 04:54 | 48.10952 | -4.19861 | 36993 ft | 424 kts | 200° |
| 2026-05-08 04:55 | 48.05109 | -4.22181 | 36993 ft | 424 kts | 200° |
| 2026-05-08 04:55 | 47.99283 | -4.24488 | 36993 ft | 424 kts | 200° |
| 2026-05-08 04:56 | 47.93424 | -4.26803 | 36992 ft | 423 kts | 200° |
| 2026-05-08 04:56 | 47.87614 | -4.29093 | 36993 ft | 423 kts | 200° |
| 2026-05-08 04:57 | 47.81814 | -4.31379 | 36993 ft | 423 kts | 201° |
| 2026-05-08 04:57 | 47.76065 | -4.33939 | 36993 ft | 421 kts | 202° |
| 2026-05-08 04:58 | 47.70320 | -4.36568 | 36993 ft | 422 kts | 202° |
| 2026-05-08 04:58 | 47.64583 | -4.39176 | 36993 ft | 422 kts | 202° |
| 2026-05-08 04:59 | 47.58783 | -4.41798 | 36965 ft | 423 kts | 202° |
| 2026-05-08 04:59 | 47.53016 | -4.44392 | 36966 ft | 422 kts | 202° |
| 2026-05-08 05:00 | 47.47179 | -4.47011 | 36966 ft | 421 kts | 202° |
| 2026-05-08 05:00 | 47.41407 | -4.49596 | 36966 ft | 421 kts | 202° |
| 2026-05-08 05:01 | 47.35672 | -4.52155 | 36966 ft | 421 kts | 202° |
| 2026-05-08 05:01 | 47.29943 | -4.54706 | 36966 ft | 421 kts | 202° |
| 2026-05-08 05:02 | 47.24248 | -4.57238 | 36966 ft | 421 kts | 202° |
| 2026-05-08 05:02 | 47.18486 | -4.59792 | 36966 ft | 421 kts | 202° |
| 2026-05-08 05:03 | 47.12758 | -4.62324 | 36966 ft | 421 kts | 202° |
| 2026-05-08 05:03 | 47.07021 | -4.64792 | 36966 ft | 422 kts | 200° |
| 2026-05-08 05:04 | 47.01183 | -4.67024 | 36965 ft | 423 kts | 199° |
| 2026-05-08 05:04 | 46.95347 | -4.69244 | 36966 ft | 424 kts | 199° |
| 2026-05-08 05:05 | 46.89527 | -4.71462 | 36965 ft | 423 kts | 199° |
| 2026-05-08 05:05 | 46.83706 | -4.73682 | 36961 ft | 422 kts | 199° |
| 2026-05-08 05:06 | 46.77898 | -4.75896 | 36951 ft | 422 kts | 199° |
| 2026-05-08 05:06 | 46.72094 | -4.78104 | 36941 ft | 422 kts | 199° |
| 2026-05-08 05:07 | 46.66302 | -4.80303 | 36939 ft | 422 kts | 199° |
| 2026-05-08 05:07 | 46.60484 | -4.82509 | 36937 ft | 422 kts | 199° |
| 2026-05-08 05:08 | 46.54658 | -4.84712 | 36934 ft | 422 kts | 199° |
| 2026-05-08 05:08 | 46.48836 | -4.86909 | 36931 ft | 422 kts | 199° |
| 2026-05-08 05:09 | 46.43038 | -4.89093 | 36929 ft | 422 kts | 199° |
| 2026-05-08 05:09 | 46.37221 | -4.91279 | 36927 ft | 422 kts | 199° |
| 2026-05-08 05:10 | 46.28495 | -4.94549 | 36923 ft | 421 kts | 199° |
| 2026-05-08 05:11 | 46.22698 | -4.96717 | 36920 ft | 422 kts | 199° |
| 2026-05-08 05:11 | 46.16861 | -4.98892 | 36908 ft | 422 kts | 199° |
| 2026-05-08 05:12 | 46.11021 | -5.01062 | 36896 ft | 421 kts | 199° |
| 2026-05-08 05:12 | 46.05199 | -5.03225 | 36886 ft | 420 kts | 199° |
| 2026-05-08 05:13 | 45.99382 | -5.05381 | 36885 ft | 421 kts | 199° |
| 2026-05-08 05:13 | 45.93601 | -5.07519 | 36883 ft | 418 kts | 199° |
| 2026-05-08 05:14 | 45.87849 | -5.09637 | 36885 ft | 417 kts | 199° |
| 2026-05-08 05:14 | 45.82101 | -5.11754 | 36885 ft | 418 kts | 199° |
| 2026-05-08 05:15 | 45.76343 | -5.13869 | 36884 ft | 417 kts | 199° |
| 2026-05-08 05:15 | 45.70605 | -5.15970 | 36885 ft | 417 kts | 199° |
| 2026-05-08 05:16 | 45.64840 | -5.18079 | 36885 ft | 417 kts | 199° |
| 2026-05-08 05:16 | 45.59100 | -5.20174 | 36885 ft | 417 kts | 199° |
| 2026-05-08 05:17 | 45.53322 | -5.22280 | 36875 ft | 417 kts | 199° |
| 2026-05-08 05:17 | 45.47584 | -5.24363 | 36866 ft | 417 kts | 199° |
| 2026-05-08 05:18 | 45.41831 | -5.26447 | 36857 ft | 416 kts | 199° |
| 2026-05-08 05:18 | 45.36099 | -5.28523 | 36858 ft | 415 kts | 199° |
| 2026-05-08 05:19 | 45.30372 | -5.30592 | 36858 ft | 416 kts | 199° |
| 2026-05-08 05:19 | 45.24637 | -5.32658 | 36857 ft | 415 kts | 199° |
| 2026-05-08 05:20 | 45.18911 | -5.34717 | 36858 ft | 415 kts | 199° |
| 2026-05-08 05:20 | 45.13177 | -5.36772 | 36858 ft | 414 kts | 199° |
| 2026-05-08 05:21 | 45.07477 | -5.38813 | 36858 ft | 413 kts | 199° |
| 2026-05-08 05:21 | 45.01757 | -5.40860 | 36858 ft | 413 kts | 198° |
| 2026-05-08 05:22 | 44.96085 | -5.42883 | 36858 ft | 413 kts | 198° |
| 2026-05-08 05:22 | 44.90387 | -5.44909 | 36857 ft | 412 kts | 198° |
| 2026-05-08 05:23 | 44.84679 | -5.46938 | 36858 ft | 412 kts | 198° |
| 2026-05-08 05:23 | 44.78973 | -5.48960 | 36857 ft | 411 kts | 198° |
| 2026-05-08 05:24 | 44.73305 | -5.50965 | 36858 ft | 411 kts | 198° |
| 2026-05-08 05:24 | 44.67648 | -5.52962 | 36858 ft | 410 kts | 198° |
| 2026-05-08 05:25 | 44.62011 | -5.55074 | 36856 ft | 408 kts | 202° |
| 2026-05-08 05:25 | 44.56666 | -5.58069 | 36858 ft | 405 kts | 207° |
| 2026-05-08 05:26 | 44.51365 | -5.61293 | 36858 ft | 404 kts | 207° |
| 2026-05-08 05:26 | 44.46106 | -5.64524 | 36857 ft | 404 kts | 207° |
| 2026-05-08 05:27 | 44.40811 | -5.67774 | 36848 ft | 404 kts | 206° |
| 2026-05-08 05:27 | 44.35554 | -5.70997 | 36839 ft | 403 kts | 206° |
| 2026-05-08 05:28 | 44.30309 | -5.74212 | 36830 ft | 403 kts | 206° |
| 2026-05-08 05:28 | 44.25077 | -5.77412 | 36831 ft | 402 kts | 206° |
| 2026-05-08 05:29 | 44.19821 | -5.80624 | 36830 ft | 402 kts | 206° |
| 2026-05-08 05:29 | 44.14595 | -5.83813 | 36831 ft | 403 kts | 206° |
| 2026-05-08 05:30 | 44.09335 | -5.87015 | 36830 ft | 403 kts | 206° |
| 2026-05-08 05:30 | 44.04078 | -5.90209 | 36830 ft | 402 kts | 206° |
| 2026-05-08 05:31 | 43.98860 | -5.93372 | 36831 ft | 402 kts | 206° |
| 2026-05-08 05:31 | 43.93570 | -5.96574 | 36831 ft | 402 kts | 206° |
| 2026-05-08 05:32 | 43.88298 | -5.99759 | 36831 ft | 402 kts | 206° |
| 2026-05-08 05:32 | 43.83073 | -6.02909 | 36831 ft | 402 kts | 206° |
| 2026-05-08 05:33 | 43.77822 | -6.06070 | 36830 ft | 402 kts | 206° |
| 2026-05-08 05:33 | 43.72605 | -6.09203 | 36831 ft | 401 kts | 206° |
| 2026-05-08 05:34 | 43.67350 | -6.12355 | 36831 ft | 401 kts | 206° |
| 2026-05-08 05:34 | 43.62130 | -6.15478 | 36831 ft | 401 kts | 206° |
| 2026-05-08 05:35 | 43.56887 | -6.18609 | 36831 ft | 401 kts | 206° |
| 2026-05-08 05:35 | 43.51678 | -6.21714 | 36830 ft | 400 kts | 206° |
| 2026-05-08 05:36 | 43.46448 | -6.24826 | 36830 ft | 399 kts | 205° |
| 2026-05-08 05:36 | 43.41259 | -6.27909 | 36831 ft | 398 kts | 205° |
| 2026-05-08 05:37 | 43.36046 | -6.30998 | 36831 ft | 398 kts | 205° |
| 2026-05-08 05:37 | 43.30869 | -6.34060 | 36830 ft | 397 kts | 205° |
| 2026-05-08 05:38 | 43.25666 | -6.37133 | 36831 ft | 397 kts | 205° |
| 2026-05-08 05:38 | 43.20510 | -6.40173 | 36831 ft | 397 kts | 205° |
| 2026-05-08 05:39 | 43.15306 | -6.43235 | 36837 ft | 396 kts | 205° |
| 2026-05-08 05:39 | 43.10154 | -6.46259 | 36845 ft | 395 kts | 205° |
| 2026-05-08 05:40 | 43.04979 | -6.49293 | 36854 ft | 394 kts | 205° |
| 2026-05-08 05:40 | 42.99828 | -6.52305 | 36858 ft | 394 kts | 205° |
| 2026-05-08 05:41 | 42.94641 | -6.55334 | 36858 ft | 394 kts | 205° |
| 2026-05-08 05:41 | 42.89520 | -6.58320 | 36858 ft | 394 kts | 205° |
| 2026-05-08 05:42 | 42.84383 | -6.61309 | 36858 ft | 394 kts | 205° |
| 2026-05-08 05:42 | 42.79226 | -6.64303 | 36857 ft | 394 kts | 205° |
| 2026-05-08 05:43 | 42.74094 | -6.67273 | 36858 ft | 393 kts | 204° |
| 2026-05-08 05:43 | 42.68946 | -6.70247 | 36860 ft | 392 kts | 204° |
| 2026-05-08 05:44 | 42.63844 | -6.73191 | 36870 ft | 392 kts | 204° |
| 2026-05-08 05:44 | 42.58734 | -6.76136 | 36877 ft | 392 kts | 204° |
| 2026-05-08 05:45 | 42.53593 | -6.79093 | 36884 ft | 392 kts | 204° |
| 2026-05-08 05:45 | 42.48505 | -6.82018 | 36885 ft | 391 kts | 204° |
| 2026-05-08 05:46 | 42.43395 | -6.84947 | 36885 ft | 391 kts | 204° |
| 2026-05-08 05:46 | 42.38266 | -6.87885 | 36885 ft | 391 kts | 204° |
| 2026-05-08 05:47 | 42.33167 | -6.90799 | 36885 ft | 391 kts | 204° |
| 2026-05-08 05:47 | 42.28051 | -6.93717 | 36885 ft | 391 kts | 204° |
| 2026-05-08 05:48 | 42.22951 | -6.96621 | 36885 ft | 391 kts | 203° |
| 2026-05-08 05:48 | 42.17843 | -6.99525 | 36884 ft | 389 kts | 203° |
| 2026-05-08 05:49 | 42.12778 | -7.02400 | 36885 ft | 389 kts | 203° |
| 2026-05-08 05:49 | 42.07696 | -7.05278 | 36885 ft | 390 kts | 203° |
| 2026-05-08 05:50 | 42.02592 | -7.08165 | 36885 ft | 390 kts | 203° |
| 2026-05-08 05:50 | 41.97489 | -7.11053 | 36886 ft | 388 kts | 203° |
| 2026-05-08 05:51 | 41.92450 | -7.13894 | 36884 ft | 385 kts | 202° |
| 2026-05-08 05:51 | 41.87428 | -7.16713 | 36885 ft | 386 kts | 202° |
| 2026-05-08 05:52 | 41.82413 | -7.19528 | 36885 ft | 387 kts | 202° |
| 2026-05-08 05:52 | 41.77359 | -7.22253 | 36884 ft | 387 kts | 199° |
| 2026-05-08 05:53 | 41.72015 | -7.23881 | 36886 ft | 387 kts | 188° |
| 2026-05-08 05:53 | 41.66583 | -7.24532 | 36885 ft | 388 kts | 186° |
| 2026-05-08 05:54 | 41.61143 | -7.25131 | 36885 ft | 388 kts | 186° |
| 2026-05-08 05:54 | 41.55688 | -7.25726 | 36885 ft | 388 kts | 186° |
| 2026-05-08 05:55 | 41.50214 | -7.26320 | 36885 ft | 388 kts | 186° |
| 2026-05-08 05:55 | 41.44756 | -7.26911 | 36885 ft | 388 kts | 186° |
| 2026-05-08 05:56 | 41.39296 | -7.27501 | 36879 ft | 388 kts | 186° |
| 2026-05-08 05:56 | 41.33818 | -7.28091 | 36870 ft | 388 kts | 186° |
| 2026-05-08 05:57 | 41.28382 | -7.28678 | 36860 ft | 388 kts | 186° |
| 2026-05-08 05:57 | 41.22905 | -7.29266 | 36858 ft | 387 kts | 186° |
| 2026-05-08 05:58 | 41.17458 | -7.29852 | 36858 ft | 387 kts | 186° |
| 2026-05-08 05:58 | 41.11984 | -7.30437 | 36858 ft | 387 kts | 186° |
| 2026-05-08 05:59 | 41.06530 | -7.31019 | 36858 ft | 387 kts | 186° |
| 2026-05-08 05:59 | 41.01064 | -7.31603 | 36858 ft | 387 kts | 186° |
| 2026-05-08 06:00 | 40.95625 | -7.32183 | 36858 ft | 387 kts | 186° |
| 2026-05-08 06:00 | 40.90171 | -7.32763 | 36858 ft | 387 kts | 186° |
| 2026-05-08 06:01 | 40.84757 | -7.33338 | 36857 ft | 388 kts | 186° |
| 2026-05-08 06:01 | 40.79321 | -7.33915 | 36857 ft | 387 kts | 186° |
| 2026-05-08 06:02 | 40.73890 | -7.34488 | 36874 ft | 387 kts | 186° |
| 2026-05-08 06:02 | 40.68439 | -7.35065 | 36893 ft | 387 kts | 186° |
| 2026-05-08 06:03 | 40.63007 | -7.35638 | 36910 ft | 387 kts | 186° |
| 2026-05-08 06:03 | 40.57565 | -7.36212 | 36911 ft | 388 kts | 185° |
| 2026-05-08 06:04 | 40.52124 | -7.36784 | 36911 ft | 387 kts | 185° |
| 2026-05-08 06:04 | 40.46685 | -7.37355 | 36912 ft | 388 kts | 185° |
| 2026-05-08 06:05 | 40.41220 | -7.37926 | 36911 ft | 387 kts | 185° |
| 2026-05-08 06:05 | 40.35785 | -7.38496 | 36912 ft | 386 kts | 185° |
| 2026-05-08 06:06 | 40.30374 | -7.39060 | 36912 ft | 388 kts | 185° |
| 2026-05-08 06:06 | 40.24914 | -7.39630 | 36902 ft | 388 kts | 185° |
| 2026-05-08 06:07 | 40.19451 | -7.40199 | 36893 ft | 388 kts | 185° |
| 2026-05-08 06:07 | 40.13984 | -7.40767 | 36885 ft | 387 kts | 185° |
| 2026-05-08 06:08 | 40.08532 | -7.41334 | 36885 ft | 387 kts | 185° |
| 2026-05-08 06:08 | 40.03104 | -7.41895 | 36885 ft | 387 kts | 185° |
| 2026-05-08 06:09 | 39.97646 | -7.42459 | 36885 ft | 386 kts | 185° |
| 2026-05-08 06:09 | 39.92212 | -7.43020 | 36885 ft | 386 kts | 185° |
| 2026-05-08 06:10 | 39.86771 | -7.43581 | 36885 ft | 387 kts | 185° |
| 2026-05-08 06:10 | 39.81339 | -7.44139 | 36884 ft | 387 kts | 185° |
| 2026-05-08 06:11 | 39.75926 | -7.44607 | 36877 ft | 377 kts | 187° |
| 2026-05-08 06:11 | 39.70647 | -7.45165 | 36887 ft | 377 kts | 189° |
| 2026-05-08 06:12 | 39.65339 | -7.45750 | 36887 ft | 379 kts | 188° |
| 2026-05-08 06:12 | 39.59973 | -7.46318 | 36896 ft | 379 kts | 188° |
| 2026-05-08 06:13 | 39.54628 | -7.46872 | 36905 ft | 378 kts | 188° |
| 2026-05-08 06:13 | 39.49324 | -7.47417 | 36912 ft | 378 kts | 188° |
| 2026-05-08 06:14 | 39.43999 | -7.47961 | 36912 ft | 378 kts | 188° |
| 2026-05-08 06:14 | 39.38684 | -7.48501 | 36911 ft | 377 kts | 188° |
| 2026-05-08 06:15 | 39.33358 | -7.49043 | 36912 ft | 377 kts | 188° |
| 2026-05-08 06:15 | 39.28065 | -7.49580 | 36912 ft | 378 kts | 188° |
| 2026-05-08 06:16 | 39.22727 | -7.50120 | 36912 ft | 378 kts | 188° |
| 2026-05-08 06:16 | 39.17406 | -7.50658 | 36912 ft | 377 kts | 188° |
| 2026-05-08 06:17 | 39.09472 | -7.51458 | 36912 ft | 376 kts | 188° |
| 2026-05-08 06:17 | 39.04172 | -7.51992 | 36912 ft | 376 kts | 188° |
| 2026-05-08 06:18 | 38.98842 | -7.52528 | 36912 ft | 377 kts | 188° |
| 2026-05-08 06:18 | 38.93525 | -7.53062 | 36912 ft | 377 kts | 188° |
| 2026-05-08 06:19 | 38.88210 | -7.53595 | 36912 ft | 377 kts | 188° |
| 2026-05-08 06:19 | 38.82923 | -7.54126 | 36912 ft | 376 kts | 188° |
| 2026-05-08 06:20 | 38.77674 | -7.54649 | 36911 ft | 375 kts | 188° |
| 2026-05-08 06:20 | 38.72422 | -7.55168 | 36396 ft | 369 kts | 188° |
| 2026-05-08 06:21 | 38.69826 | -7.55405 | 35798 ft | 368 kts | 188° |
| 2026-05-08 06:21 | 38.67253 | -7.55710 | 35200 ft | 366 kts | 188° |
| 2026-05-08 06:21 | 38.64705 | -7.55954 | 34761 ft | 361 kts | 188° |
| 2026-05-08 06:21 | 38.62187 | -7.56191 | 34314 ft | 357 kts | 188° |
| 2026-05-08 06:22 | 38.59695 | -7.56437 | 33867 ft | 352 kts | 187° |
| 2026-05-08 06:22 | 38.57228 | -7.56668 | 33422 ft | 348 kts | 188° |
| 2026-05-08 06:22 | 38.54781 | -7.56923 | 32982 ft | 343 kts | 188° |
| 2026-05-08 06:22 | 38.52401 | -7.57172 | 32545 ft | 339 kts | 188° |
| 2026-05-08 06:23 | 38.50013 | -7.57419 | 32107 ft | 336 kts | 187° |
| 2026-05-08 06:23 | 38.47663 | -7.57642 | 31681 ft | 332 kts | 187° |
| 2026-05-08 06:23 | 38.45337 | -7.57869 | 31259 ft | 328 kts | 187° |
| 2026-05-08 06:23 | 38.43045 | -7.58094 | 30842 ft | 325 kts | 187° |
| 2026-05-08 06:24 | 38.40771 | -7.58316 | 30425 ft | 322 kts | 187° |
| 2026-05-08 06:24 | 38.38504 | -7.58541 | 30018 ft | 326 kts | 187° |
| 2026-05-08 06:24 | 38.36149 | -7.58776 | 29595 ft | 340 kts | 187° |
| 2026-05-08 06:24 | 38.33732 | -7.59015 | 29132 ft | 341 kts | 187° |
| 2026-05-08 06:25 | 38.31340 | -7.59248 | 28688 ft | 337 kts | 187° |
| 2026-05-08 06:25 | 38.29007 | -7.59475 | 28254 ft | 333 kts | 187° |
| 2026-05-08 06:25 | 38.26647 | -7.59706 | 27820 ft | 329 kts | 187° |
| 2026-05-08 06:25 | 38.24343 | -7.59931 | 27392 ft | 325 kts | 187° |
| 2026-05-08 06:26 | 38.22058 | -7.60155 | 26969 ft | 321 kts | 187° |
| 2026-05-08 06:26 | 38.19828 | -7.60375 | 26561 ft | 317 kts | 187° |
| 2026-05-08 06:26 | 38.17598 | -7.60593 | 26152 ft | 313 kts | 187° |
| 2026-05-08 06:26 | 38.15396 | -7.60809 | 25744 ft | 309 kts | 187° |
| 2026-05-08 06:27 | 38.13232 | -7.61022 | 25340 ft | 306 kts | 187° |
| 2026-05-08 06:27 | 38.11096 | -7.61246 | 24863 ft | 305 kts | 189° |
| 2026-05-08 06:27 | 38.08950 | -7.61730 | 24261 ft | 306 kts | 197° |
| 2026-05-08 06:27 | 38.06914 | -7.62682 | 23792 ft | 304 kts | 205° |
| 2026-05-08 06:28 | 38.04978 | -7.63900 | 23271 ft | 303 kts | 207° |
| 2026-05-08 06:28 | 38.03073 | -7.65147 | 22859 ft | 300 kts | 206° |
| 2026-05-08 06:28 | 38.01213 | -7.66357 | 22469 ft | 296 kts | 206° |
| 2026-05-08 06:28 | 37.99336 | -7.67570 | 22075 ft | 292 kts | 205° |
| 2026-05-08 06:29 | 37.97489 | -7.68761 | 21688 ft | 289 kts | 205° |
| 2026-05-08 06:29 | 37.95690 | -7.69919 | 21320 ft | 285 kts | 205° |
| 2026-05-08 06:29 | 37.93905 | -7.71066 | 20942 ft | 282 kts | 205° |
| 2026-05-08 06:29 | 37.92117 | -7.72214 | 20566 ft | 279 kts | 205° |
| 2026-05-08 06:30 | 37.90374 | -7.73332 | 20201 ft | 276 kts | 205° |
| 2026-05-08 06:30 | 37.88618 | -7.74459 | 19835 ft | 273 kts | 205° |
| 2026-05-08 06:30 | 37.86879 | -7.75574 | 19470 ft | 271 kts | 205° |
| 2026-05-08 06:30 | 37.85186 | -7.76659 | 19114 ft | 269 kts | 204° |
| 2026-05-08 06:31 | 37.83467 | -7.77759 | 18762 ft | 267 kts | 204° |
| 2026-05-08 06:31 | 37.81801 | -7.78824 | 18562 ft | 262 kts | 204° |
| 2026-05-08 06:31 | 37.80096 | -7.79909 | 18229 ft | 280 kts | 204° |
| 2026-05-08 06:31 | 37.78291 | -7.81061 | 17816 ft | 283 kts | 204° |
| 2026-05-08 06:32 | 37.76530 | -7.82186 | 17426 ft | 280 kts | 204° |
| 2026-05-08 06:32 | 37.74750 | -7.83323 | 17051 ft | 277 kts | 204° |
| 2026-05-08 06:32 | 37.73024 | -7.84426 | 16687 ft | 274 kts | 204° |
| 2026-05-08 06:32 | 37.71285 | -7.85534 | 16320 ft | 272 kts | 204° |
| 2026-05-08 06:33 | 37.69583 | -7.86618 | 15961 ft | 269 kts | 204° |
| 2026-05-08 06:33 | 37.67883 | -7.87702 | 15603 ft | 267 kts | 204° |
| 2026-05-08 06:33 | 37.66204 | -7.88771 | 15249 ft | 265 kts | 204° |
| 2026-05-08 06:33 | 37.64534 | -7.89832 | 14897 ft | 262 kts | 204° |
| 2026-05-08 06:34 | 37.62887 | -7.90879 | 14549 ft | 259 kts | 204° |
| 2026-05-08 06:34 | 37.61239 | -7.91927 | 14199 ft | 256 kts | 204° |
| 2026-05-08 06:34 | 37.59618 | -7.92958 | 13862 ft | 258 kts | 204° |
| 2026-05-08 06:34 | 37.57949 | -7.94014 | 13523 ft | 272 kts | 204° |
| 2026-05-08 06:35 | 37.56221 | -7.95110 | 13139 ft | 270 kts | 205° |
| 2026-05-08 06:35 | 37.54517 | -7.96194 | 12777 ft | 267 kts | 205° |
| 2026-05-08 06:35 | 37.52829 | -7.97263 | 12422 ft | 265 kts | 205° |
| 2026-05-08 06:35 | 37.51164 | -7.98320 | 12069 ft | 263 kts | 205° |
| 2026-05-08 06:36 | 37.49513 | -7.99366 | 11720 ft | 261 kts | 205° |
| 2026-05-08 06:36 | 37.47847 | -8.00421 | 11369 ft | 259 kts | 205° |
| 2026-05-08 06:36 | 37.46205 | -8.01459 | 11021 ft | 258 kts | 205° |
| 2026-05-08 06:36 | 37.44581 | -8.02486 | 10680 ft | 257 kts | 205° |
| 2026-05-08 06:37 | 37.42942 | -8.03523 | 10335 ft | 256 kts | 205° |
| 2026-05-08 06:37 | 37.41335 | -8.04538 | 9995 ft | 255 kts | 205° |
| 2026-05-08 06:37 | 37.39729 | -8.05553 | 9867 ft | 245 kts | 205° |
| 2026-05-08 06:37 | 37.38192 | -8.06523 | 9634 ft | 248 kts | 205° |
| 2026-05-08 06:38 | 37.36557 | -8.07564 | 9231 ft | 261 kts | 205° |
| 2026-05-08 06:38 | 37.34915 | -8.08643 | 8874 ft | 261 kts | 206° |
| 2026-05-08 06:38 | 37.33276 | -8.09727 | 8531 ft | 260 kts | 206° |
| 2026-05-08 06:38 | 37.31637 | -8.10800 | 8192 ft | 259 kts | 206° |
| 2026-05-08 06:39 | 37.30013 | -8.11845 | 7855 ft | 258 kts | 206° |
| 2026-05-08 06:39 | 37.28368 | -8.12864 | 7517 ft | 257 kts | 205° |
| 2026-05-08 06:39 | 37.26732 | -8.13851 | 7182 ft | 256 kts | 205° |
| 2026-05-08 06:39 | 37.25072 | -8.14845 | 6843 ft | 255 kts | 205° |
| 2026-05-08 06:40 | 37.23455 | -8.15825 | 6512 ft | 254 kts | 206° |
| 2026-05-08 06:40 | 37.21817 | -8.16836 | 6176 ft | 253 kts | 206° |
| 2026-05-08 06:40 | 37.20222 | -8.17831 | 5848 ft | 253 kts | 207° |
| 2026-05-08 06:40 | 37.18623 | -8.18833 | 5517 ft | 252 kts | 207° |
| 2026-05-08 06:41 | 37.17039 | -8.19826 | 5190 ft | 251 kts | 207° |
| 2026-05-08 06:41 | 37.15435 | -8.20830 | 4927 ft | 247 kts | 207° |
| 2026-05-08 06:41 | 37.13900 | -8.21793 | 4873 ft | 235 kts | 207° |
| 2026-05-08 06:41 | 37.12461 | -8.22695 | 4856 ft | 223 kts | 207° |
| 2026-05-08 06:42 | 37.11074 | -8.23564 | 4788 ft | 212 kts | 207° |
| 2026-05-08 06:42 | 37.09773 | -8.24378 | 4701 ft | 200 kts | 207° |
| 2026-05-08 06:42 | 37.08511 | -8.25145 | 4623 ft | 194 kts | 202° |
| 2026-05-08 06:42 | 37.07180 | -8.25390 | 4550 ft | 188 kts | 172° |
| 2026-05-08 06:43 | 37.05986 | -8.24712 | 4454 ft | 188 kts | 141° |
| 2026-05-08 06:43 | 37.05186 | -8.23389 | 4034 ft | 190 kts | 112° |
| 2026-05-08 06:43 | 37.04900 | -8.21801 | 3769 ft | 178 kts | 98° |
| 2026-05-08 06:43 | 37.04726 | -8.20225 | 3386 ft | 178 kts | 98° |
| 2026-05-08 06:44 | 37.04541 | -8.18668 | 3030 ft | 178 kts | 98° |
| 2026-05-08 06:44 | 37.04348 | -8.17169 | 2976 ft | 166 kts | 99° |
| 2026-05-08 06:44 | 37.04141 | -8.15678 | 2763 ft | 172 kts | 99° |
| 2026-05-08 06:44 | 37.03937 | -8.14227 | 2546 ft | 159 kts | 99° |
| 2026-05-08 06:45 | 37.03739 | -8.12822 | 2328 ft | 158 kts | 99° |
| 2026-05-08 06:45 | 37.03549 | -8.11470 | 2094 ft | 154 kts | 99° |
| 2026-05-08 06:45 | 37.03356 | -8.10102 | 1889 ft | 155 kts | 98° |
| 2026-05-08 06:45 | 37.03165 | -8.08749 | 1669 ft | 154 kts | 99° |
| 2026-05-08 06:46 | 37.02975 | -8.07404 | 1455 ft | 152 kts | 98° |
| 2026-05-08 06:46 | 37.02791 | -8.06101 | 1245 ft | 148 kts | 98° |
| 2026-05-08 06:46 | 37.02610 | -8.04818 | 1045 ft | 148 kts | 98° |
| 2026-05-08 06:46 | 37.02424 | -8.03511 | 848 ft | 147 kts | 98° |
| 2026-05-08 06:47 | 37.02197 | -8.02226 | 648 ft | 147 kts | 100° |
| 2026-05-08 06:47 | 37.02005 | -8.00929 | 450 ft | 146 kts | 97° |
| 2026-05-08 06:47 | 37.01864 | -7.99647 | 242 ft | 144 kts | 97° |
| 2026-05-08 06:47 | 37.01682 | -7.98397 | 30 ft | 141 kts | 97° |
| 2026-05-08 06:48 | 37.01546 | -7.97369 | 20 ft | 81 kts | 97° |
| 2026-05-08 06:48 | 37.01482 | -7.96873 | 21 ft | 37 kts | 101° |
| 2026-05-08 06:48 | 37.01460 | -7.96744 | 22 ft | 7 kts | 102° |
| 2026-05-08 06:48 | 37.01448 | -7.96658 | 22 ft | 12 kts | 95° |
| 2026-05-08 06:49 | 37.01496 | -7.96582 | 22 ft | 9 kts | 13° |
| 2026-05-08 06:49 | 37.01558 | -7.96565 | 22 ft | 9 kts | 11° |
| 2026-05-08 06:49 | 37.01642 | -7.96551 | 22 ft | 13 kts | 8° |
| 2026-05-08 06:49 | 37.01742 | -7.96527 | 23 ft | 12 kts | 17° |
| 2026-05-08 06:50 | 37.01770 | -7.96477 | 22 ft | 3 kts | 91° |
| 2026-05-08 06:50 | 37.01769 | -7.96455 | 22 ft | 1 kts | 98° |
| 2026-05-08 06:50 | 37.01767 | -7.96441 | 22 ft | 2 kts | 100° |
| 2026-05-08 06:50 | 37.01767 | -7.96403 | 22 ft | 4 kts | 60° |
| 2026-05-08 06:51 | 37.01815 | -7.96383 | 21 ft | 8 kts | 10° |
| 2026-05-08 06:51 | 37.01838 | -7.96378 | 20 ft | 0 kts | 10° |